Terminal Aerodrome Forecast
Issued by NWS Grand Forks, ND

Home | Current Version | Previous Version | Graphics & Text | Print | Product List | Glossary On
Versions: 1 2 3 4 5 6 7 8 9 10 11 12 13 14 15 16 17
703
FTUS43 KFGF 241322 AAA
TAFFAR
TAF AMD
KFAR 241322Z 2413/2512 02003KT P6SM SCT250
     FM241700 14012KT P6SM BKN050=

USA.gov is the U.S. government's official web portal to all federal, state and local government web resources and services.